OAL195 ZJHK-VMMC
Flight info
| Callsign | OAL195 |
|---|---|
| Flight time | 1h 5m |
| Altitude | 26600 |
| Route | SAMAS G221 BIGRO |
| Aircraft | TBM8/L-SDFGRWY/S |
Departure
| Time | 2026-04-23 16:13 |
|---|---|
| Airport | Haikou Meilan International Airport (ZJHK) |
Arrival
| Time | 2026-04-23 17:18 |
|---|---|
| Airport | Macau International Airport (VMMC) |
| Time | Latitude | Longitude | Altitude | Speed | Heading |
|---|---|---|---|---|---|
| 2026-04-23 15:55 | 19.95057 | 110.45650 | 68 ft | 0 kts | 1° |
| 2026-04-23 15:56 | 19.95053 | 110.45650 | 68 ft | 0 kts | 1° |
| 2026-04-23 16:10 | 19.95054 | 110.45650 | 68 ft | 1 kts | 1° |
| 2026-04-23 16:10 | 19.95091 | 110.45648 | 68 ft | 11 kts | 352° |
| 2026-04-23 16:11 | 19.95144 | 110.45587 | 66 ft | 16 kts | 281° |
| 2026-04-23 16:11 | 19.95214 | 110.45533 | 66 ft | 17 kts | 0° |
| 2026-04-23 16:11 | 19.95351 | 110.45534 | 69 ft | 18 kts | 11° |
| 2026-04-23 16:11 | 19.95376 | 110.45591 | 70 ft | 0 kts | 90° |
| 2026-04-23 16:12 | 19.95377 | 110.45793 | 69 ft | 60 kts | 90° |
| 2026-04-23 16:12 | 19.95372 | 110.46435 | 152 ft | 104 kts | 93° |
| 2026-04-23 16:12 | 19.95387 | 110.47247 | 523 ft | 118 kts | 80° |
| 2026-04-23 16:13 | 19.95411 | 110.48183 | 882 ft | 135 kts | 88° |
| 2026-04-23 16:13 | 19.96441 | 110.49871 | 1695 ft | 158 kts | 28° |
| 2026-04-23 16:13 | 19.97410 | 110.50481 | 2090 ft | 169 kts | 34° |
| 2026-04-23 16:14 | 19.98427 | 110.51203 | 2518 ft | 175 kts | 35° |
| 2026-04-23 16:14 | 19.99436 | 110.51915 | 3047 ft | 177 kts | 36° |
| 2026-04-23 16:14 | 20.00463 | 110.52649 | 3574 ft | 179 kts | 36° |
| 2026-04-23 16:14 | 20.01497 | 110.53393 | 4129 ft | 178 kts | 35° |
| 2026-04-23 16:15 | 20.02517 | 110.54124 | 4733 ft | 176 kts | 34° |
| 2026-04-23 16:15 | 20.03524 | 110.54845 | 5313 ft | 173 kts | 34° |
| 2026-04-23 16:15 | 20.04512 | 110.55552 | 5903 ft | 170 kts | 34° |
| 2026-04-23 16:15 | 20.05486 | 110.56251 | 6486 ft | 167 kts | 33° |
| 2026-04-23 16:16 | 20.06441 | 110.56937 | 7050 ft | 164 kts | 33° |
| 2026-04-23 16:16 | 20.07378 | 110.57609 | 7605 ft | 162 kts | 32° |
| 2026-04-23 16:16 | 20.08324 | 110.58291 | 8076 ft | 167 kts | 32° |
| 2026-04-23 16:16 | 20.09295 | 110.58991 | 8559 ft | 171 kts | 31° |
| 2026-04-23 16:17 | 20.10393 | 110.59456 | 9065 ft | 170 kts | 1° |
| 2026-04-23 16:17 | 20.11555 | 110.59355 | 9578 ft | 167 kts | 339° |
| 2026-04-23 16:17 | 20.12689 | 110.59055 | 10056 ft | 169 kts | 341° |
| 2026-04-23 16:17 | 20.13826 | 110.58777 | 10499 ft | 170 kts | 340° |
| 2026-04-23 16:18 | 20.14983 | 110.58486 | 10972 ft | 171 kts | 340° |
| 2026-04-23 16:18 | 20.16146 | 110.58191 | 11446 ft | 172 kts | 340° |
| 2026-04-23 16:18 | 20.17310 | 110.57897 | 11926 ft | 172 kts | 339° |
| 2026-04-23 16:18 | 20.18477 | 110.57602 | 12411 ft | 172 kts | 339° |
| 2026-04-23 16:19 | 20.19638 | 110.57307 | 12896 ft | 172 kts | 339° |
| 2026-04-23 16:19 | 20.20806 | 110.57012 | 13346 ft | 174 kts | 339° |
| 2026-04-23 16:19 | 20.21992 | 110.56713 | 13796 ft | 175 kts | 338° |
| 2026-04-23 16:19 | 20.23183 | 110.56411 | 14201 ft | 177 kts | 338° |
| 2026-04-23 16:20 | 20.24383 | 110.56109 | 14610 ft | 177 kts | 338° |
| 2026-04-23 16:20 | 20.25584 | 110.55805 | 15025 ft | 178 kts | 338° |
| 2026-04-23 16:20 | 20.26769 | 110.55505 | 15440 ft | 177 kts | 338° |
| 2026-04-23 16:20 | 20.27972 | 110.55200 | 15867 ft | 177 kts | 338° |
| 2026-04-23 16:21 | 20.29168 | 110.54898 | 16305 ft | 176 kts | 338° |
| 2026-04-23 16:21 | 20.30360 | 110.54596 | 16744 ft | 175 kts | 338° |
| 2026-04-23 16:21 | 20.31540 | 110.54297 | 17187 ft | 173 kts | 338° |
| 2026-04-23 16:21 | 20.32702 | 110.54003 | 17634 ft | 171 kts | 338° |
| 2026-04-23 16:22 | 20.33847 | 110.53713 | 18087 ft | 167 kts | 338° |
| 2026-04-23 16:22 | 20.34968 | 110.53428 | 18487 ft | 163 kts | 337° |
| 2026-04-23 16:22 | 20.36074 | 110.53146 | 18816 ft | 164 kts | 337° |
| 2026-04-23 16:22 | 20.37183 | 110.52866 | 19147 ft | 163 kts | 337° |
| 2026-04-23 16:23 | 20.38287 | 110.52587 | 19482 ft | 163 kts | 336° |
| 2026-04-23 16:23 | 20.39389 | 110.52305 | 19764 ft | 166 kts | 336° |
| 2026-04-23 16:23 | 20.40535 | 110.52016 | 19999 ft | 172 kts | 337° |
| 2026-04-23 16:23 | 20.41721 | 110.51717 | 20245 ft | 178 kts | 337° |
| 2026-04-23 16:24 | 20.42947 | 110.51406 | 20489 ft | 184 kts | 337° |
| 2026-04-23 16:24 | 20.44212 | 110.51085 | 20737 ft | 190 kts | 337° |
| 2026-04-23 16:24 | 20.45514 | 110.50754 | 20986 ft | 195 kts | 338° |
| 2026-04-23 16:24 | 20.46837 | 110.50418 | 21233 ft | 200 kts | 338° |
| 2026-04-23 16:25 | 20.48211 | 110.50070 | 21484 ft | 205 kts | 338° |
| 2026-04-23 16:25 | 20.49676 | 110.49975 | 21725 ft | 222 kts | 1° |
| 2026-04-23 16:25 | 20.51164 | 110.50564 | 21988 ft | 236 kts | 26° |
| 2026-04-23 16:25 | 20.52377 | 110.51784 | 22334 ft | 243 kts | 44° |
| 2026-04-23 16:26 | 20.53468 | 110.53161 | 22712 ft | 241 kts | 44° |
| 2026-04-23 16:26 | 20.54546 | 110.54511 | 23126 ft | 237 kts | 43° |
| 2026-04-23 16:26 | 20.55613 | 110.55834 | 23524 ft | 232 kts | 43° |
| 2026-04-23 16:26 | 20.56650 | 110.57122 | 23874 ft | 225 kts | 43° |
| 2026-04-23 16:27 | 20.57653 | 110.58372 | 24223 ft | 218 kts | 42° |
| 2026-04-23 16:27 | 20.58624 | 110.59577 | 24583 ft | 210 kts | 41° |
| 2026-04-23 16:27 | 20.59561 | 110.60739 | 24880 ft | 204 kts | 41° |
| 2026-04-23 16:27 | 20.60475 | 110.61877 | 25126 ft | 202 kts | 41° |
| 2026-04-23 16:28 | 20.61394 | 110.63020 | 25296 ft | 205 kts | 41° |
| 2026-04-23 16:28 | 20.62331 | 110.64192 | 25438 ft | 210 kts | 41° |
| 2026-04-23 16:28 | 20.63293 | 110.65396 | 25578 ft | 215 kts | 41° |
| 2026-04-23 16:28 | 20.64293 | 110.66638 | 25644 ft | 226 kts | 42° |
| 2026-04-23 16:29 | 20.65333 | 110.67937 | 25767 ft | 233 kts | 42° |
| 2026-04-23 16:29 | 20.66403 | 110.69271 | 25899 ft | 240 kts | 43° |
| 2026-04-23 16:29 | 20.67488 | 110.70621 | 26028 ft | 246 kts | 43° |
| 2026-04-23 16:29 | 20.68613 | 110.72024 | 26192 ft | 250 kts | 43° |
| 2026-04-23 16:30 | 20.69743 | 110.73434 | 26436 ft | 249 kts | 43° |
| 2026-04-23 16:30 | 20.70892 | 110.74862 | 26493 ft | 259 kts | 43° |
| 2026-04-23 16:30 | 20.72089 | 110.76359 | 26504 ft | 271 kts | 44° |
| 2026-04-23 16:30 | 20.73327 | 110.77919 | 26503 ft | 278 kts | 44° |
| 2026-04-23 16:31 | 20.74588 | 110.79505 | 26502 ft | 280 kts | 44° |
| 2026-04-23 16:31 | 20.75869 | 110.81090 | 26501 ft | 282 kts | 44° |
| 2026-04-23 16:31 | 20.77153 | 110.82686 | 26504 ft | 284 kts | 44° |
| 2026-04-23 16:31 | 20.78437 | 110.84291 | 26502 ft | 285 kts | 44° |
| 2026-04-23 16:32 | 20.79726 | 110.85905 | 26505 ft | 286 kts | 44° |
| 2026-04-23 16:32 | 20.81018 | 110.87520 | 26507 ft | 286 kts | 44° |
| 2026-04-23 16:32 | 20.82299 | 110.89122 | 26507 ft | 287 kts | 44° |
| 2026-04-23 16:32 | 20.83612 | 110.90763 | 26506 ft | 287 kts | 44° |
| 2026-04-23 16:33 | 20.84908 | 110.92386 | 26504 ft | 287 kts | 44° |
| 2026-04-23 16:33 | 20.86207 | 110.94012 | 26511 ft | 287 kts | 44° |
| 2026-04-23 16:33 | 20.87492 | 110.95621 | 26512 ft | 288 kts | 44° |
| 2026-04-23 16:33 | 20.88791 | 110.97247 | 26512 ft | 288 kts | 44° |
| 2026-04-23 16:34 | 20.90091 | 110.98876 | 26508 ft | 288 kts | 44° |
| 2026-04-23 16:34 | 20.91392 | 111.00507 | 26509 ft | 288 kts | 44° |
| 2026-04-23 16:34 | 20.92692 | 111.02136 | 26510 ft | 288 kts | 44° |
| 2026-04-23 16:34 | 20.93996 | 111.03770 | 26508 ft | 288 kts | 44° |
| 2026-04-23 16:35 | 20.95295 | 111.05400 | 26509 ft | 288 kts | 44° |
| 2026-04-23 16:35 | 20.96600 | 111.07029 | 26510 ft | 289 kts | 44° |
| 2026-04-23 16:35 | 20.97915 | 111.08658 | 26513 ft | 290 kts | 44° |
| 2026-04-23 16:35 | 20.99231 | 111.10293 | 26512 ft | 290 kts | 44° |
| 2026-04-23 16:36 | 21.00548 | 111.11936 | 26510 ft | 291 kts | 44° |
| 2026-04-23 16:36 | 21.01869 | 111.13581 | 26511 ft | 291 kts | 44° |
| 2026-04-23 16:36 | 21.03178 | 111.15211 | 26511 ft | 292 kts | 44° |
| 2026-04-23 16:36 | 21.04503 | 111.16861 | 26512 ft | 292 kts | 44° |
| 2026-04-23 16:37 | 21.05827 | 111.18508 | 26511 ft | 292 kts | 44° |
| 2026-04-23 16:37 | 21.07151 | 111.20160 | 26512 ft | 292 kts | 44° |
| 2026-04-23 16:37 | 21.08478 | 111.21816 | 26512 ft | 293 kts | 44° |
| 2026-04-23 16:37 | 21.09809 | 111.23474 | 26512 ft | 294 kts | 44° |
| 2026-04-23 16:38 | 21.11140 | 111.25135 | 26512 ft | 294 kts | 44° |
| 2026-04-23 16:38 | 21.12474 | 111.26800 | 26512 ft | 294 kts | 44° |
| 2026-04-23 16:38 | 21.13807 | 111.28464 | 26515 ft | 294 kts | 44° |
| 2026-04-23 16:38 | 21.15141 | 111.30130 | 26515 ft | 294 kts | 44° |
| 2026-04-23 16:39 | 21.16474 | 111.31795 | 26515 ft | 295 kts | 44° |
| 2026-04-23 16:39 | 21.17809 | 111.33463 | 26515 ft | 295 kts | 44° |
| 2026-04-23 16:39 | 21.19146 | 111.35134 | 26518 ft | 295 kts | 44° |
| 2026-04-23 16:39 | 21.20463 | 111.36780 | 26518 ft | 295 kts | 44° |
| 2026-04-23 16:40 | 21.21797 | 111.38449 | 26518 ft | 295 kts | 44° |
| 2026-04-23 16:40 | 21.23134 | 111.40122 | 26518 ft | 295 kts | 44° |
| 2026-04-23 16:40 | 21.24469 | 111.41793 | 26521 ft | 295 kts | 44° |
| 2026-04-23 16:40 | 21.25807 | 111.43466 | 26521 ft | 295 kts | 44° |
| 2026-04-23 16:41 | 21.27141 | 111.45137 | 26518 ft | 295 kts | 44° |
| 2026-04-23 16:41 | 21.28478 | 111.46812 | 26519 ft | 296 kts | 44° |
| 2026-04-23 16:41 | 21.29819 | 111.48491 | 26526 ft | 296 kts | 44° |
| 2026-04-23 16:41 | 21.31159 | 111.50170 | 26525 ft | 296 kts | 44° |
| 2026-04-23 16:42 | 21.32498 | 111.51850 | 26527 ft | 296 kts | 44° |
| 2026-04-23 16:42 | 21.33820 | 111.53507 | 26527 ft | 296 kts | 44° |
| 2026-04-23 16:42 | 21.35158 | 111.55186 | 26526 ft | 297 kts | 45° |
| 2026-04-23 16:42 | 21.36500 | 111.56869 | 26524 ft | 297 kts | 45° |
| 2026-04-23 16:43 | 21.37839 | 111.58551 | 26520 ft | 297 kts | 45° |
| 2026-04-23 16:43 | 21.39182 | 111.60236 | 26521 ft | 297 kts | 45° |
| 2026-04-23 16:43 | 21.40523 | 111.61920 | 26522 ft | 297 kts | 45° |
| 2026-04-23 16:43 | 21.41864 | 111.63604 | 26528 ft | 297 kts | 45° |
| 2026-04-23 16:44 | 21.42752 | 111.64720 | 26522 ft | 297 kts | 45° |
| 2026-04-23 16:44 | 21.44091 | 111.66405 | 26524 ft | 297 kts | 45° |
| 2026-04-23 16:44 | 21.45435 | 111.68093 | 26522 ft | 297 kts | 45° |
| 2026-04-23 16:44 | 21.46774 | 111.69778 | 26520 ft | 297 kts | 45° |
| 2026-04-23 16:45 | 21.48112 | 111.71461 | 26525 ft | 297 kts | 45° |
| 2026-04-23 16:45 | 21.49454 | 111.73147 | 26521 ft | 298 kts | 45° |
| 2026-04-23 16:45 | 21.50801 | 111.74844 | 26534 ft | 298 kts | 45° |
| 2026-04-23 16:45 | 21.52150 | 111.76544 | 26535 ft | 299 kts | 45° |
| 2026-04-23 16:46 | 21.53498 | 111.78242 | 26533 ft | 300 kts | 45° |
| 2026-04-23 16:46 | 21.54853 | 111.79949 | 26534 ft | 300 kts | 45° |
| 2026-04-23 16:46 | 21.56193 | 111.81668 | 26531 ft | 301 kts | 49° |
| 2026-04-23 16:46 | 21.57201 | 111.83657 | 26517 ft | 306 kts | 66° |
| 2026-04-23 16:47 | 21.57789 | 111.85863 | 26521 ft | 308 kts | 75° |
| 2026-04-23 16:47 | 21.58321 | 111.88093 | 26521 ft | 308 kts | 74° |
| 2026-04-23 16:47 | 21.58866 | 111.90319 | 26521 ft | 308 kts | 74° |
| 2026-04-23 16:47 | 21.59411 | 111.92544 | 26540 ft | 308 kts | 74° |
| 2026-04-23 16:48 | 21.59952 | 111.94778 | 26534 ft | 309 kts | 74° |
| 2026-04-23 16:48 | 21.60487 | 111.96986 | 26534 ft | 310 kts | 74° |
| 2026-04-23 16:48 | 21.61030 | 111.99224 | 26532 ft | 310 kts | 74° |
| 2026-04-23 16:48 | 21.61574 | 112.01470 | 26532 ft | 310 kts | 74° |
| 2026-04-23 16:49 | 21.62119 | 112.03722 | 26537 ft | 310 kts | 74° |
| 2026-04-23 16:49 | 21.62640 | 112.05928 | 26295 ft | 303 kts | 75° |
| 2026-04-23 16:49 | 21.63165 | 112.08119 | 25927 ft | 302 kts | 74° |
| 2026-04-23 16:49 | 21.63704 | 112.10296 | 25552 ft | 302 kts | 74° |
| 2026-04-23 16:50 | 21.64240 | 112.12485 | 25194 ft | 303 kts | 74° |
| 2026-04-23 16:50 | 21.64765 | 112.14680 | 24833 ft | 303 kts | 75° |
| 2026-04-23 16:50 | 21.65290 | 112.16869 | 24480 ft | 302 kts | 75° |
| 2026-04-23 16:50 | 21.65818 | 112.19051 | 24130 ft | 301 kts | 75° |
| 2026-04-23 16:51 | 21.66343 | 112.21225 | 23783 ft | 299 kts | 75° |
| 2026-04-23 16:51 | 21.66863 | 112.23387 | 23428 ft | 298 kts | 75° |
| 2026-04-23 16:51 | 21.67374 | 112.25509 | 23021 ft | 296 kts | 75° |
| 2026-04-23 16:51 | 21.67888 | 112.27645 | 22612 ft | 294 kts | 75° |
| 2026-04-23 16:52 | 21.68397 | 112.29766 | 22206 ft | 292 kts | 75° |
| 2026-04-23 16:52 | 21.68904 | 112.31873 | 21809 ft | 290 kts | 75° |
| 2026-04-23 16:52 | 21.69407 | 112.33966 | 21417 ft | 288 kts | 75° |
| 2026-04-23 16:52 | 21.69904 | 112.36043 | 21030 ft | 286 kts | 75° |
| 2026-04-23 16:53 | 21.70401 | 112.38109 | 20655 ft | 284 kts | 75° |
| 2026-04-23 16:53 | 21.70896 | 112.40165 | 20299 ft | 284 kts | 75° |
| 2026-04-23 16:53 | 21.71387 | 112.42216 | 19949 ft | 282 kts | 76° |
| 2026-04-23 16:53 | 21.71873 | 112.44251 | 19599 ft | 280 kts | 76° |
| 2026-04-23 16:54 | 21.72356 | 112.46271 | 19259 ft | 278 kts | 76° |
| 2026-04-23 16:54 | 21.72836 | 112.48276 | 18922 ft | 276 kts | 76° |
| 2026-04-23 16:54 | 21.73313 | 112.50271 | 18590 ft | 274 kts | 76° |
| 2026-04-23 16:54 | 21.73786 | 112.52253 | 18255 ft | 272 kts | 76° |
| 2026-04-23 16:55 | 21.74256 | 112.54219 | 17878 ft | 270 kts | 76° |
| 2026-04-23 16:55 | 21.74722 | 112.56173 | 17494 ft | 268 kts | 76° |
| 2026-04-23 16:55 | 21.75184 | 112.58111 | 17121 ft | 266 kts | 76° |
| 2026-04-23 16:55 | 21.75643 | 112.60033 | 16746 ft | 264 kts | 76° |
| 2026-04-23 16:56 | 21.76097 | 112.61940 | 16378 ft | 262 kts | 76° |
| 2026-04-23 16:56 | 21.76545 | 112.63816 | 16020 ft | 263 kts | 76° |
| 2026-04-23 16:56 | 21.77003 | 112.65727 | 15663 ft | 265 kts | 76° |
| 2026-04-23 16:56 | 21.77457 | 112.67651 | 15309 ft | 265 kts | 76° |
| 2026-04-23 16:57 | 21.77911 | 112.69566 | 14961 ft | 264 kts | 76° |
| 2026-04-23 16:57 | 21.78365 | 112.71473 | 14611 ft | 263 kts | 76° |
| 2026-04-23 16:57 | 21.78817 | 112.73376 | 14279 ft | 261 kts | 76° |
| 2026-04-23 16:57 | 21.79266 | 112.75267 | 13939 ft | 261 kts | 76° |
| 2026-04-23 16:58 | 21.79712 | 112.77152 | 13585 ft | 259 kts | 76° |
| 2026-04-23 16:58 | 21.80157 | 112.79025 | 13198 ft | 258 kts | 76° |
| 2026-04-23 16:58 | 21.80597 | 112.80886 | 12822 ft | 256 kts | 76° |
| 2026-04-23 16:58 | 21.81035 | 112.82735 | 12454 ft | 255 kts | 76° |
| 2026-04-23 16:59 | 21.81472 | 112.84584 | 12085 ft | 255 kts | 76° |
| 2026-04-23 16:59 | 21.81909 | 112.86426 | 11716 ft | 252 kts | 76° |
| 2026-04-23 16:59 | 21.82340 | 112.88242 | 11355 ft | 249 kts | 76° |
| 2026-04-23 16:59 | 21.82759 | 112.90015 | 11009 ft | 246 kts | 76° |
| 2026-04-23 17:00 | 21.83180 | 112.91801 | 10655 ft | 244 kts | 76° |
| 2026-04-23 17:00 | 21.83597 | 112.93567 | 10303 ft | 243 kts | 76° |
| 2026-04-23 17:00 | 21.84013 | 112.95330 | 9935 ft | 242 kts | 77° |
| 2026-04-23 17:00 | 21.84425 | 112.97079 | 9545 ft | 241 kts | 76° |
| 2026-04-23 17:01 | 21.84834 | 112.98817 | 9142 ft | 239 kts | 76° |
| 2026-04-23 17:01 | 21.85241 | 113.00544 | 8838 ft | 233 kts | 76° |
| 2026-04-23 17:01 | 21.85628 | 113.02161 | 8831 ft | 224 kts | 75° |
| 2026-04-23 17:01 | 21.86049 | 113.03855 | 8843 ft | 242 kts | 76° |
| 2026-04-23 17:02 | 21.86326 | 113.05030 | 8898 ft | 248 kts | 76° |
| 2026-04-23 17:02 | 21.86887 | 113.07513 | 8908 ft | 260 kts | 77° |
| 2026-04-23 17:02 | 21.87331 | 113.09418 | 8910 ft | 264 kts | 76° |
| 2026-04-23 17:02 | 21.87787 | 113.11342 | 8904 ft | 265 kts | 76° |
| 2026-04-23 17:03 | 21.88242 | 113.13270 | 8904 ft | 265 kts | 76° |
| 2026-04-23 17:03 | 21.88687 | 113.15168 | 8904 ft | 265 kts | 76° |
| 2026-04-23 17:03 | 21.89144 | 113.17118 | 8904 ft | 265 kts | 76° |
| 2026-04-23 17:03 | 21.89590 | 113.19014 | 8903 ft | 265 kts | 76° |
| 2026-04-23 17:04 | 21.90043 | 113.20946 | 8910 ft | 265 kts | 76° |
| 2026-04-23 17:04 | 21.90493 | 113.22872 | 8910 ft | 265 kts | 76° |
| 2026-04-23 17:04 | 21.90945 | 113.24800 | 8909 ft | 266 kts | 76° |
| 2026-04-23 17:04 | 21.91398 | 113.26732 | 8909 ft | 266 kts | 76° |
| 2026-04-23 17:05 | 21.91714 | 113.28685 | 8897 ft | 265 kts | 90° |
| 2026-04-23 17:05 | 21.91492 | 113.30643 | 8892 ft | 263 kts | 107° |
| 2026-04-23 17:05 | 21.90857 | 113.32500 | 8548 ft | 267 kts | 115° |
| 2026-04-23 17:05 | 21.90156 | 113.34333 | 8175 ft | 263 kts | 114° |
| 2026-04-23 17:06 | 21.89498 | 113.36161 | 7801 ft | 261 kts | 113° |
| 2026-04-23 17:06 | 21.88860 | 113.37918 | 7418 ft | 237 kts | 115° |
| 2026-04-23 17:06 | 21.88277 | 113.39486 | 7064 ft | 218 kts | 114° |
| 2026-04-23 17:06 | 21.87733 | 113.41035 | 6732 ft | 224 kts | 114° |
| 2026-04-23 17:07 | 21.87164 | 113.42597 | 6414 ft | 225 kts | 114° |
| 2026-04-23 17:07 | 21.86588 | 113.44147 | 6058 ft | 226 kts | 115° |
| 2026-04-23 17:07 | 21.86219 | 113.45776 | 5898 ft | 220 kts | 97° |
| 2026-04-23 17:07 | 21.86065 | 113.47382 | 5843 ft | 213 kts | 99° |
| 2026-04-23 17:08 | 21.85865 | 113.48954 | 5722 ft | 211 kts | 101° |
| 2026-04-23 17:08 | 21.85672 | 113.50519 | 5591 ft | 210 kts | 100° |
| 2026-04-23 17:08 | 21.85491 | 113.52073 | 5467 ft | 209 kts | 100° |
| 2026-04-23 17:08 | 21.85309 | 113.53623 | 5346 ft | 208 kts | 100° |
| 2026-04-23 17:09 | 21.85128 | 113.55165 | 5225 ft | 207 kts | 100° |
| 2026-04-23 17:09 | 21.84947 | 113.56701 | 5106 ft | 207 kts | 100° |
| 2026-04-23 17:09 | 21.84768 | 113.58217 | 4986 ft | 207 kts | 101° |
| 2026-04-23 17:09 | 21.84606 | 113.59771 | 4866 ft | 207 kts | 95° |
| 2026-04-23 17:10 | 21.84868 | 113.61283 | 4748 ft | 211 kts | 71° |
| 2026-04-23 17:10 | 21.85382 | 113.62767 | 4623 ft | 211 kts | 72° |
| 2026-04-23 17:10 | 21.85867 | 113.64249 | 4490 ft | 209 kts | 72° |
| 2026-04-23 17:10 | 21.86359 | 113.65717 | 4376 ft | 208 kts | 69° |
| 2026-04-23 17:11 | 21.87174 | 113.67000 | 4198 ft | 209 kts | 44° |
| 2026-04-23 17:11 | 21.88370 | 113.67876 | 4030 ft | 208 kts | 21° |
| 2026-04-23 17:11 | 21.89759 | 113.68223 | 3857 ft | 204 kts | 359° |
| 2026-04-23 17:11 | 21.91143 | 113.68028 | 3687 ft | 199 kts | 337° |
| 2026-04-23 17:12 | 21.92442 | 113.67536 | 3523 ft | 198 kts | 336° |
| 2026-04-23 17:12 | 21.93733 | 113.67069 | 3358 ft | 198 kts | 336° |
| 2026-04-23 17:12 | 21.95000 | 113.66536 | 3212 ft | 192 kts | 333° |
| 2026-04-23 17:12 | 21.96231 | 113.66028 | 3063 ft | 187 kts | 336° |
| 2026-04-23 17:13 | 21.97469 | 113.65581 | 3009 ft | 187 kts | 338° |
| 2026-04-23 17:13 | 21.98697 | 113.65136 | 3005 ft | 185 kts | 338° |
| 2026-04-23 17:13 | 21.99929 | 113.64674 | 2824 ft | 190 kts | 339° |
| 2026-04-23 17:13 | 22.01194 | 113.64217 | 2578 ft | 191 kts | 339° |
| 2026-04-23 17:14 | 22.02445 | 113.63748 | 2335 ft | 189 kts | 339° |
| 2026-04-23 17:14 | 22.03690 | 113.63297 | 2085 ft | 187 kts | 341° |
| 2026-04-23 17:14 | 22.04886 | 113.62854 | 1840 ft | 170 kts | 342° |
| 2026-04-23 17:14 | 22.05903 | 113.62479 | 1637 ft | 139 kts | 343° |
| 2026-04-23 17:15 | 22.06675 | 113.62177 | 1483 ft | 107 kts | 343° |
| 2026-04-23 17:15 | 22.07340 | 113.61924 | 1351 ft | 100 kts | 344° |
| 2026-04-23 17:15 | 22.07989 | 113.61684 | 1222 ft | 98 kts | 345° |
| 2026-04-23 17:15 | 22.08627 | 113.61451 | 1095 ft | 96 kts | 345° |
| 2026-04-23 17:16 | 22.09265 | 113.61221 | 972 ft | 97 kts | 344° |
| 2026-04-23 17:16 | 22.09903 | 113.60991 | 854 ft | 96 kts | 344° |
| 2026-04-23 17:16 | 22.10534 | 113.60765 | 738 ft | 94 kts | 343° |
| 2026-04-23 17:16 | 22.11149 | 113.60539 | 620 ft | 93 kts | 340° |
| 2026-04-23 17:17 | 22.11756 | 113.60318 | 503 ft | 91 kts | 342° |
| 2026-04-23 17:17 | 22.12344 | 113.60097 | 387 ft | 88 kts | 341° |
| 2026-04-23 17:17 | 22.12725 | 113.59961 | 312 ft | 87 kts | 343° |
| 2026-04-23 17:17 | 22.13490 | 113.59670 | 135 ft | 87 kts | 343° |
| 2026-04-23 17:18 | 22.14538 | 113.59292 | 23 ft | 50 kts | 341° |
| 2026-04-23 17:18 | 22.14613 | 113.59238 | 23 ft | 5 kts | 238° |
| 2026-04-23 17:18 | 22.14589 | 113.59180 | 23 ft | 13 kts | 251° |
| 2026-04-23 17:19 | 22.14594 | 113.59085 | 24 ft | 13 kts | 332° |
| 2026-04-23 17:19 | 22.14684 | 113.59051 | 23 ft | 15 kts | 340° |
| 2026-04-23 17:19 | 22.14765 | 113.58977 | 25 ft | 19 kts | 305° |
| 2026-04-23 17:19 | 22.14832 | 113.58868 | 23 ft | 19 kts | 300° |
| 2026-04-23 17:20 | 22.14902 | 113.58755 | 23 ft | 19 kts | 303° |
| 2026-04-23 17:20 | 22.15065 | 113.58491 | 25 ft | 20 kts | 304° |
| 2026-04-23 17:21 | 22.15214 | 113.58249 | 24 ft | 18 kts | 302° |
| 2026-04-23 17:21 | 22.15243 | 113.58203 | 23 ft | 0 kts | 302° |
| 2026-04-23 17:22 | 22.15261 | 113.58173 | 23 ft | 10 kts | 302° |
| 2026-04-23 17:22 | 22.15411 | 113.57931 | 23 ft | 23 kts | 304° |
| 2026-04-23 17:23 | 22.15477 | 113.57824 | 23 ft | 0 kts | 303° |
| 2026-04-23 17:23 | 22.15503 | 113.57782 | 24 ft | 12 kts | 304° |
| 2026-04-23 17:24 | 22.15569 | 113.57678 | 24 ft | 19 kts | 302° |
| 2026-04-23 17:24 | 22.15631 | 113.57593 | 24 ft | 9 kts | 298° |
| 2026-04-23 17:24 | 22.15573 | 113.57505 | 23 ft | 6 kts | 235° |
| 2026-04-23 17:25 | 22.15483 | 113.57546 | 23 ft | 2 kts | 149° |